createdAt,value
2022-08-23T00:03:56.462Z,57.60
2022-08-23T00:07:58.611Z,57.50
2022-08-23T00:12:09.873Z,58.80
2022-08-23T00:16:10.980Z,58.40
2022-08-23T00:20:15.057Z,60.00
2022-08-23T00:24:17.991Z,60.10
2022-08-23T00:28:19.486Z,60.40
2022-08-23T00:32:24.431Z,59.80
2022-08-23T00:36:25.742Z,59.80
2022-08-23T00:40:26.932Z,59.80
2022-08-23T00:44:50.915Z,59.90
2022-08-23T00:48:52.757Z,60.60
2022-08-23T00:53:09.230Z,60.80
2022-08-23T00:57:13.766Z,61.80
2022-08-23T01:01:17.797Z,62.40
2022-08-23T01:05:22.508Z,64.30
2022-08-23T01:09:23.822Z,66.20
2022-08-23T01:13:29.446Z,67.80
2022-08-23T01:17:34.361Z,70.10
2022-08-23T01:21:41.176Z,71.30
2022-08-23T01:25:42.834Z,70.30
2022-08-23T01:29:44.095Z,71.30
2022-08-23T01:33:48.426Z,73.20
2022-08-23T01:37:49.690Z,75.90
2022-08-23T01:41:50.918Z,78.70
2022-08-23T01:45:53.446Z,82.20
2022-08-23T01:49:54.885Z,83.40
2022-08-23T01:53:56.034Z,85.00
2022-08-23T01:58:01.886Z,83.50
2022-08-23T02:02:03.216Z,86.10
2022-08-23T02:06:05.717Z,87.80
2022-08-23T02:10:08.749Z,89.40
2022-08-23T02:14:13.219Z,90.80
2022-08-23T02:18:14.612Z,91.10
2022-08-23T02:22:17.742Z,91.20
2022-08-23T02:26:19.279Z,92.30
2022-08-23T02:30:20.485Z,93.10
2022-08-23T02:34:37.203Z,91.90
2022-08-23T02:38:39.172Z,92.30
2022-08-23T02:42:41.285Z,95.90
2022-08-23T02:46:42.818Z,96.00
2022-08-23T02:50:44.275Z,96.20
2022-08-23T02:54:45.577Z,97.10
2022-08-23T02:58:46.871Z,96.00
2022-08-23T03:02:50.184Z,96.80
2022-08-23T03:06:52.172Z,99.90
2022-08-23T03:10:53.465Z,99.40
2022-08-23T03:14:55.765Z,96.20
2022-08-23T03:18:57.382Z,96.30
2022-08-23T03:22:58.928Z,97.90
2022-08-23T03:27:00.304Z,96.70
2022-08-23T03:31:02.290Z,96.40
2022-08-23T03:35:05.065Z,97.20
2022-08-23T03:39:08.206Z,98.50
2022-08-23T03:43:10.667Z,99.10
2022-08-23T03:47:12.208Z,99.90
2022-08-23T03:51:13.424Z,99.90
2022-08-23T03:55:16.030Z,99.90
2022-08-23T03:59:17.268Z,99.90
2022-08-23T04:03:18.490Z,99.90
2022-08-23T04:07:21.037Z,99.60
2022-08-23T04:11:23.374Z,99.70
2022-08-23T04:15:24.991Z,99.90
2022-08-23T04:19:26.623Z,99.90
2022-08-23T04:23:29.952Z,99.90
2022-08-23T04:27:31.287Z,99.90
2022-08-23T04:31:34.652Z,99.90
2022-08-23T04:35:36.030Z,99.90
2022-08-23T04:39:43.158Z,99.90
2022-08-23T04:43:43.350Z,99.90
2022-08-23T04:47:44.479Z,99.90
2022-08-23T04:51:51.910Z,99.90
2022-08-23T04:55:51.163Z,99.90
2022-08-23T04:59:52.693Z,99.90
2022-08-23T05:03:54.626Z,99.90
2022-08-23T05:07:56.575Z,99.90
2022-08-23T05:11:57.866Z,99.90
2022-08-23T05:15:59.318Z,99.90
2022-08-23T05:20:00.928Z,99.90
2022-08-23T05:24:03.867Z,99.90
2022-08-23T05:28:05.177Z,99.90
2022-08-23T05:32:06.393Z,99.90
2022-08-23T05:36:09.472Z,99.90
2022-08-23T05:40:11.351Z,99.90
2022-08-23T05:44:13.387Z,99.90
2022-08-23T05:48:15.324Z,99.90
2022-08-23T05:52:18.360Z,99.90
2022-08-23T05:56:23.370Z,99.90
2022-08-23T06:00:28.385Z,99.90
2022-08-23T06:04:28.289Z,99.90
2022-08-23T06:08:29.506Z,99.90
2022-08-23T06:12:31.329Z,99.90
2022-08-23T06:16:35.948Z,99.90
2022-08-23T06:20:37.237Z,99.90
2022-08-23T06:24:38.525Z,99.90
2022-08-23T06:28:50.973Z,99.90
2022-08-23T06:32:44.814Z,99.90
2022-08-23T06:36:48.926Z,99.90
2022-08-23T06:40:50.155Z,99.90
2022-08-23T06:44:51.574Z,99.90
2022-08-23T06:48:53.017Z,99.90
2022-08-23T06:52:54.256Z,99.90
2022-08-23T06:56:55.657Z,99.90
2022-08-23T07:01:42.267Z,99.90
2022-08-23T07:05:20.964Z,99.40
2022-08-23T07:09:22.172Z,96.20
2022-08-23T07:13:23.412Z,91.90
2022-08-23T07:17:24.738Z,93.20
2022-08-23T07:21:26.366Z,92.20
2022-08-23T07:25:27.595Z,89.10
2022-08-23T07:29:29.442Z,85.70
2022-08-23T07:33:31.065Z,83.10
2022-08-23T07:37:34.105Z,80.30
2022-08-23T07:41:38.139Z,77.50
2022-08-23T07:45:40.072Z,78.10
2022-08-23T07:49:42.201Z,79.80
2022-08-23T07:53:46.137Z,75.30
2022-08-23T07:57:47.651Z,74.80
2022-08-23T08:01:49.212Z,75.30
2022-08-23T08:05:50.391Z,75.10
2022-08-23T08:09:51.664Z,73.00
2022-08-23T08:13:53.292Z,72.00
2022-08-23T08:17:54.508Z,70.40
2022-08-23T08:21:55.812Z,70.80
2022-08-23T08:26:06.766Z,68.40
2022-08-23T08:30:09.942Z,67.40
2022-08-23T08:34:11.757Z,69.30
2022-08-23T08:38:13.183Z,62.10
2022-08-23T08:42:39.866Z,63.00
2022-08-23T08:46:47.063Z,58.60
2022-08-23T08:50:52.167Z,60.90
2022-08-23T08:55:15.425Z,58.70
2022-08-23T08:59:26.219Z,58.10
2022-08-23T09:03:31.322Z,55.00
2022-08-23T09:07:54.181Z,52.20
2022-08-23T09:12:17.610Z,50.50
2022-08-23T09:16:42.569Z,50.20
2022-08-23T09:20:47.081Z,51.20
2022-08-23T09:24:48.338Z,51.40
2022-08-23T09:28:53.270Z,50.40
2022-08-23T09:32:55.406Z,48.60
2022-08-23T09:37:10.275Z,48.10
2022-08-23T09:41:20.934Z,45.50
2022-08-23T09:45:33.099Z,46.90
2022-08-23T09:49:32.274Z,45.50
2022-08-23T09:53:34.199Z,47.00
2022-08-23T09:57:37.732Z,45.70
2022-08-23T10:01:39.401Z,44.50
2022-08-23T10:05:41.166Z,44.90
2022-08-23T10:09:43.027Z,43.70
2022-08-23T10:13:44.349Z,43.50
2022-08-23T10:18:02.824Z,43.70
2022-08-23T10:22:22.981Z,42.70
2022-08-23T10:26:31.114Z,41.20
2022-08-23T10:30:57.558Z,42.60
2022-08-23T10:35:08.673Z,41.50
2022-08-23T10:39:19.739Z,42.00
2022-08-23T10:43:30.334Z,40.30
2022-08-23T10:47:38.200Z,40.20
2022-08-23T10:51:43.205Z,38.40
2022-08-23T10:56:02.541Z,40.10
2022-08-23T11:00:10.706Z,41.70
2022-08-23T11:04:15.639Z,40.50
2022-08-23T11:08:32.948Z,39.50
2022-08-23T11:12:37.992Z,40.40
2022-08-23T11:16:43.619Z,39.20
2022-08-23T11:20:55.167Z,38.50
2022-08-23T11:25:18.952Z,38.00
2022-08-23T11:29:23.978Z,37.80
2022-08-23T11:33:28.415Z,37.20
2022-08-23T11:37:48.671Z,37.20
2022-08-23T11:41:59.687Z,37.50
2022-08-23T11:46:33.811Z,36.90
2022-08-23T11:50:41.868Z,35.70
2022-08-23T11:55:03.783Z,37.10
2022-08-23T11:59:33.780Z,37.40
2022-08-23T12:03:56.618Z,37.20
2022-08-23T12:08:07.869Z,36.80
2022-08-23T12:12:22.004Z,38.00
2022-08-23T12:16:28.896Z,39.20
2022-08-23T12:20:31.559Z,37.30
2022-08-23T12:24:42.085Z,37.80
2022-08-23T12:28:50.695Z,38.30
2022-08-23T12:32:58.808Z,37.10
2022-08-23T12:37:15.632Z,35.90
2022-08-23T12:41:29.666Z,35.80
2022-08-23T12:45:40.413Z,36.40
2022-08-23T12:49:41.731Z,35.50
2022-08-23T12:53:45.636Z,36.00
2022-08-23T12:57:57.607Z,36.30
2022-08-23T13:02:02.043Z,36.60
2022-08-23T13:06:07.178Z,37.60
2022-08-23T13:10:10.233Z,37.90
2022-08-23T13:14:26.928Z,37.40
2022-08-23T13:18:39.764Z,38.00
2022-08-23T13:23:03.451Z,38.80
2022-08-23T13:27:14.398Z,37.10
2022-08-23T13:31:15.757Z,36.60
2022-08-23T13:35:38.486Z,36.50
2022-08-23T13:39:43.524Z,35.40
2022-08-23T13:43:47.344Z,36.80
2022-08-23T13:47:52.326Z,36.70
2022-08-23T13:52:45.911Z,36.30
2022-08-23T13:56:06.480Z,35.60
2022-08-23T14:00:10.819Z,35.80
2022-08-23T14:04:12.220Z,36.50
2022-08-23T14:08:14.036Z,36.00
2022-08-23T14:12:18.397Z,35.80
2022-08-23T14:16:34.411Z,35.80
2022-08-23T14:20:45.758Z,35.90
2022-08-23T14:24:40.322Z,36.00
2022-08-23T14:28:44.472Z,36.40
2022-08-23T14:32:44.579Z,35.90
2022-08-23T14:40:53.505Z,36.60
2022-08-23T14:44:54.649Z,36.40
2022-08-23T14:48:57.318Z,36.70
2022-08-23T14:53:02.561Z,35.80
2022-08-23T14:57:04.749Z,36.10
2022-08-23T15:01:05.995Z,36.10
2022-08-23T15:05:08.257Z,36.10
2022-08-23T15:09:09.583Z,36.20
2022-08-23T15:13:21.043Z,35.40
2022-08-23T15:17:14.649Z,36.30
2022-08-23T15:21:16.682Z,36.30
2022-08-23T15:25:18.335Z,36.00
2022-08-23T15:29:20.517Z,36.50
2022-08-23T15:33:27.131Z,37.10
2022-08-23T15:37:25.241Z,36.80
2022-08-23T15:41:26.470Z,36.70
2022-08-23T15:45:28.631Z,36.40
2022-08-23T15:49:36.173Z,36.30
2022-08-23T15:53:38.827Z,36.60
2022-08-23T15:57:43.425Z,36.20
2022-08-23T16:01:44.588Z,37.10
2022-08-23T16:05:48.967Z,36.70
2022-08-23T16:09:50.158Z,36.20
2022-08-23T16:13:51.583Z,35.80
2022-08-23T16:17:54.529Z,35.60
2022-08-23T16:21:56.559Z,36.40
2022-08-23T16:26:01.016Z,36.80
2022-08-23T16:30:00.814Z,37.10
2022-08-23T16:34:03.319Z,36.40
2022-08-23T16:38:04.566Z,36.50
2022-08-23T16:42:06.311Z,36.40
2022-08-23T16:46:08.105Z,36.80
2022-08-23T16:50:10.946Z,37.00
2022-08-23T16:54:12.293Z,36.70
2022-08-23T16:58:13.884Z,37.90
2022-08-23T17:02:27.576Z,37.00
2022-08-23T17:06:28.804Z,36.80
2022-08-23T17:10:30.321Z,37.20
2022-08-23T17:14:31.651Z,37.20
2022-08-23T17:18:33.174Z,36.90
2022-08-23T17:22:34.300Z,37.00
2022-08-23T17:26:37.003Z,37.40
2022-08-23T17:30:38.249Z,37.30
2022-08-23T17:34:39.458Z,37.20
2022-08-23T17:38:40.578Z,37.30
2022-08-23T17:42:42.074Z,36.90
2022-08-23T17:46:44.518Z,37.20
2022-08-23T17:50:46.733Z,36.40
2022-08-23T17:54:47.852Z,36.70
2022-08-23T17:58:49.291Z,36.80
2022-08-23T18:02:50.503Z,36.50
2022-08-23T18:19:32.984Z,41.00
2022-08-23T18:23:35.394Z,41.40
2022-08-23T18:27:54.994Z,42.70
2022-08-23T18:31:56.140Z,43.30
2022-08-23T18:35:57.728Z,43.40
2022-08-23T18:39:58.985Z,43.30
2022-08-23T18:44:00.173Z,44.20
2022-08-23T18:48:03.612Z,44.10
2022-08-23T18:52:05.822Z,43.90
2022-08-23T18:56:07.375Z,45.20
2022-08-23T19:00:10.313Z,46.20
2022-08-23T19:04:12.729Z,47.40
2022-08-23T19:08:14.152Z,47.40
2022-08-23T19:12:17.029Z,47.40
2022-08-23T19:16:19.565Z,46.60
2022-08-23T19:20:23.268Z,47.00
2022-08-23T19:24:24.866Z,47.50
2022-08-23T19:28:26.307Z,47.80
2022-08-23T19:32:27.715Z,47.60
2022-08-23T19:36:45.268Z,48.30
2022-08-23T19:40:33.706Z,47.80
2022-08-23T19:44:35.615Z,48.20
2022-08-23T19:48:38.204Z,48.20
2022-08-23T19:52:39.862Z,48.20
2022-08-23T19:56:47.155Z,48.10
2022-08-23T20:00:48.870Z,48.30
2022-08-23T20:04:51.166Z,48.10
2022-08-23T20:08:52.568Z,48.00
2022-08-23T20:12:54.012Z,47.70
2022-08-23T20:16:55.214Z,48.00
2022-08-23T20:20:58.512Z,48.50
2022-08-23T20:25:00.323Z,48.20
2022-08-23T20:29:03.649Z,49.80
2022-08-23T20:33:05.044Z,49.90
2022-08-23T20:37:06.693Z,50.40
2022-08-23T20:41:08.515Z,50.50
2022-08-23T20:45:10.226Z,51.20
2022-08-23T20:49:11.871Z,49.80
2022-08-23T20:53:13.605Z,48.90
2022-08-23T20:57:14.830Z,50.50
2022-08-23T21:01:16.542Z,51.50
2022-08-23T21:05:17.839Z,52.10
2022-08-23T21:09:24.552Z,52.20
2022-08-23T21:13:28.962Z,51.90
2022-08-23T21:17:30.505Z,53.10
2022-08-23T21:21:32.295Z,52.40
2022-08-23T21:25:33.430Z,52.80
2022-08-23T21:29:34.642Z,52.40
2022-08-23T21:33:40.018Z,54.00
2022-08-23T21:37:39.063Z,55.20
2022-08-23T21:41:44.011Z,56.60
2022-08-23T21:45:46.040Z,57.40
2022-08-23T21:49:47.714Z,57.70
2022-08-23T21:53:49.422Z,58.30
2022-08-23T21:57:50.882Z,58.20
2022-08-23T22:01:52.456Z,58.10
2022-08-23T22:05:54.008Z,57.30
2022-08-23T22:09:56.299Z,57.40
2022-08-23T22:13:57.866Z,57.90
2022-08-23T22:18:00.862Z,58.60
2022-08-23T22:22:02.427Z,59.40
2022-08-23T22:26:06.722Z,59.90
2022-08-23T22:30:09.258Z,60.10
2022-08-23T22:34:11.896Z,60.50
2022-08-23T22:38:14.398Z,60.50
2022-08-23T22:42:16.136Z,61.00
2022-08-23T22:46:17.283Z,61.60
2022-08-23T22:50:18.609Z,62.10
2022-08-23T22:54:19.997Z,62.60
2022-08-23T22:58:21.304Z,62.90
2022-08-23T23:02:22.439Z,63.30
2022-08-23T23:06:26.350Z,64.10
2022-08-23T23:10:27.602Z,63.80
2022-08-23T23:14:29.215Z,64.60
2022-08-23T23:18:30.691Z,65.40
2022-08-23T23:22:32.170Z,66.30
2022-08-23T23:26:33.978Z,65.80
2022-08-23T23:30:42.907Z,66.90
2022-08-23T23:34:44.161Z,67.00
2022-08-23T23:38:45.391Z,67.10
2022-08-23T23:42:47.127Z,67.30
2022-08-23T23:46:48.357Z,67.30
2022-08-23T23:50:50.983Z,68.40
2022-08-23T23:54:52.301Z,69.10
2022-08-23T23:58:56.065Z,67.80
